createdAt,value
2023-04-16T00:04:59.115Z,729.97
2023-04-16T00:10:02.111Z,731.65
2023-04-16T00:15:05.525Z,733.90
2023-04-16T00:20:12.444Z,732.80
2023-04-16T00:25:16.873Z,736.45
2023-04-16T00:30:25.007Z,729.58
2023-04-16T00:35:27.050Z,739.15
2023-04-16T00:40:30.627Z,742.00
2023-04-16T00:45:35.377Z,742.60
2023-04-16T00:50:37.303Z,739.67
2023-04-16T00:55:39.739Z,741.63
2023-04-16T01:00:41.659Z,741.10
2023-04-16T01:05:46.400Z,746.78
2023-04-16T01:10:48.281Z,736.08
2023-04-16T01:15:50.235Z,733.90
2023-04-16T01:20:53.021Z,734.35
2023-04-16T01:25:54.951Z,736.72
2023-04-16T01:30:56.914Z,749.58
2023-04-16T01:36:16.725Z,741.67
2023-04-16T01:41:18.538Z,740.38
2023-04-16T01:46:32.308Z,752.13
2023-04-16T01:51:34.290Z,747.17
2023-04-16T01:56:38.666Z,745.33
2023-04-16T02:01:43.840Z,742.35
2023-04-16T02:06:46.743Z,741.88
2023-04-16T02:11:49.071Z,740.78
2023-04-16T02:16:54.595Z,734.33
2023-04-16T02:22:16.702Z,752.00
2023-04-16T02:27:18.590Z,750.42
2023-04-16T02:32:22.336Z,746.88
2023-04-16T02:37:26.029Z,752.17
2023-04-16T02:42:29.443Z,755.92
2023-04-16T02:47:34.154Z,748.70
2023-04-16T02:52:36.327Z,739.15
2023-04-16T02:57:39.087Z,740.38
2023-04-16T03:02:42.563Z,742.50
2023-04-16T03:07:45.886Z,748.83
2023-04-16T03:12:47.787Z,738.38
2023-04-16T03:17:49.801Z,743.53
2023-04-16T03:22:54.694Z,742.03
2023-04-16T03:27:56.571Z,743.08
2023-04-16T03:32:59.869Z,746.67
2023-04-16T03:38:02.063Z,747.45
2023-04-16T03:43:06.521Z,740.10
2023-04-16T03:48:08.395Z,743.13
2023-04-16T03:53:12.850Z,743.15
2023-04-16T03:58:15.500Z,751.60
2023-04-16T04:03:22.614Z,749.95
2023-04-16T04:08:26.895Z,742.90
2023-04-16T04:13:29.405Z,744.22
2023-04-16T04:18:33.993Z,741.83
2023-04-16T04:23:36.962Z,751.72
2023-04-16T04:28:47.101Z,741.38
2023-04-16T04:33:59.268Z,749.53
2023-04-16T04:39:02.180Z,753.08
2023-04-16T04:44:04.284Z,749.08
2023-04-16T04:49:06.773Z,748.05
2023-04-16T04:54:10.151Z,744.03
2023-04-16T04:59:12.623Z,735.17
2023-04-16T05:04:16.012Z,740.95
2023-04-16T05:09:18.895Z,742.25
2023-04-16T05:14:20.749Z,742.10
2023-04-16T05:19:22.559Z,750.60
2023-04-16T05:24:32.511Z,754.20
2023-04-16T05:29:35.886Z,747.92
2023-04-16T05:34:38.246Z,741.55
2023-04-16T05:39:40.088Z,739.50
2023-04-16T05:44:42.790Z,752.33
2023-04-16T05:49:44.688Z,752.95
2023-04-16T05:54:46.598Z,750.83
2023-04-16T05:59:48.439Z,749.75
2023-04-16T06:04:50.847Z,742.10
2023-04-16T06:09:55.631Z,748.20
2023-04-16T06:14:57.800Z,739.55
2023-04-16T06:19:59.650Z,755.75
2023-04-16T06:25:02.010Z,743.38
2023-04-16T06:30:06.235Z,742.60
2023-04-16T06:35:08.472Z,743.80
2023-04-16T06:40:20.312Z,747.85
2023-04-16T06:45:23.176Z,751.90
2023-04-16T06:50:28.507Z,743.75
2023-04-16T06:55:30.415Z,741.80
2023-04-16T07:00:35.195Z,760.17
2023-04-16T07:05:37.025Z,751.65
2023-04-16T07:10:43.283Z,753.60
2023-04-16T07:15:46.639Z,744.80
2023-04-16T07:20:49.169Z,750.13
2023-04-16T07:26:04.782Z,761.30
2023-04-16T07:31:09.952Z,762.22
2023-04-16T07:36:11.858Z,756.05
2023-04-16T07:41:16.243Z,750.33
2023-04-16T07:46:21.124Z,758.03
2023-04-16T07:51:24.147Z,752.78
2023-04-16T07:56:26.047Z,753.13
2023-04-16T08:01:30.942Z,759.42
2023-04-16T08:06:32.789Z,755.92
2023-04-16T08:11:37.698Z,758.40
2023-04-16T08:16:43.086Z,752.70
2023-04-16T08:21:46.466Z,757.43
2023-04-16T08:26:48.657Z,759.30
2023-04-16T08:31:50.826Z,762.10
2023-04-16T08:36:53.841Z,772.50
2023-04-16T08:42:06.114Z,770.70
2023-04-16T08:47:09.662Z,755.53
2023-04-16T08:52:16.135Z,768.33
2023-04-16T08:57:20.645Z,763.10
2023-04-16T09:02:26.393Z,769.67
2023-04-16T09:07:30.286Z,770.58
2023-04-16T09:12:32.924Z,776.72
2023-04-16T09:17:35.958Z,768.22
2023-04-16T09:22:40.528Z,774.17
2023-04-16T09:27:42.711Z,767.42
2023-04-16T09:32:44.554Z,774.33
2023-04-16T09:38:02.760Z,777.88
2023-04-16T09:43:16.480Z,771.25
2023-04-16T09:48:34.697Z,769.10
2023-04-16T09:53:36.889Z,776.08
2023-04-16T09:58:39.068Z,776.15
2023-04-16T10:03:41.702Z,774.53
2023-04-16T10:08:49.726Z,789.80
2023-04-16T10:13:54.735Z,784.42
2023-04-16T10:18:59.009Z,784.58
2023-04-16T10:24:04.153Z,793.28
2023-04-16T10:29:15.338Z,792.35
2023-04-16T10:34:18.602Z,797.08
2023-04-16T10:39:23.206Z,797.45
2023-04-16T10:44:27.699Z,802.30
2023-04-16T10:49:29.484Z,801.08
2023-04-16T10:54:32.208Z,798.42
2023-04-16T10:59:43.094Z,795.67
2023-04-16T11:04:49.526Z,810.90
2023-04-16T11:10:02.154Z,807.25
2023-04-16T11:15:09.226Z,804.60
2023-04-16T11:20:23.447Z,800.35
2023-04-16T11:25:32.336Z,796.92
2023-04-16T11:30:39.286Z,812.35
2023-04-16T11:35:41.878Z,808.45
2023-04-16T11:40:51.533Z,812.30
2023-04-16T11:46:10.056Z,807.05
2023-04-16T11:51:15.751Z,805.92
2023-04-16T11:56:54.867Z,805.40
2023-04-16T12:01:57.266Z,810.13
2023-04-16T12:07:12.204Z,805.80
2023-04-16T12:12:28.125Z,825.10
2023-04-16T12:17:36.658Z,808.33
2023-04-16T12:22:41.082Z,804.78
2023-04-16T12:27:54.566Z,809.33
2023-04-16T12:33:17.659Z,798.00
2023-04-16T12:38:21.769Z,794.15
2023-04-16T12:43:25.942Z,796.22
2023-04-16T12:48:28.888Z,797.08
2023-04-16T12:53:33.996Z,797.33
2023-04-16T12:58:36.575Z,800.10
2023-04-16T13:03:38.773Z,800.60
2023-04-16T13:08:43.150Z,799.38
2023-04-16T13:13:45.546Z,810.50
2023-04-16T13:18:47.391Z,797.72
2023-04-16T13:23:50.867Z,799.05
2023-04-16T13:28:53.771Z,799.22
2023-04-16T13:33:55.668Z,806.47
2023-04-16T13:38:59.552Z,800.10
2023-04-16T13:44:02.319Z,798.80
2023-04-16T13:49:04.443Z,811.75
2023-04-16T13:54:07.338Z,811.05
2023-04-16T13:59:09.412Z,804.42
2023-04-16T14:04:13.029Z,808.22
2023-04-16T14:09:16.470Z,809.20
2023-04-16T14:14:18.791Z,805.65
2023-04-16T14:19:22.008Z,806.40
2023-04-16T14:24:27.257Z,815.97
2023-04-16T14:29:33.675Z,808.78
2023-04-16T14:34:35.568Z,807.13
2023-04-16T14:39:39.322Z,808.75
2023-04-16T14:44:42.445Z,791.92
2023-04-16T14:49:45.729Z,799.58
2023-04-16T14:54:48.094Z,795.10
2023-04-16T14:59:50.533Z,791.30
2023-04-16T15:04:53.418Z,783.83
2023-04-16T15:09:55.560Z,793.05
2023-04-16T15:14:57.436Z,792.75
2023-04-16T15:19:59.415Z,798.22
2023-04-16T15:25:01.342Z,802.90
2023-04-16T15:30:03.390Z,793.85
2023-04-16T15:43:00.322Z,796.60
2023-04-16T15:48:07.278Z,800.45
2023-04-16T15:53:09.681Z,795.70
2023-04-16T15:58:13.047Z,795.42
2023-04-16T16:03:15.069Z,793.35
2023-04-16T16:08:18.905Z,802.63
2023-04-16T16:18:39.570Z,804.40
2023-04-16T16:23:43.838Z,805.30
2023-04-16T16:28:48.016Z,803.40
2023-04-16T16:33:50.230Z,814.85
2023-04-16T16:38:53.556Z,807.42
2023-04-16T16:43:56.581Z,804.28
2023-04-16T16:48:59.039Z,796.15
2023-04-16T16:54:21.686Z,802.47
2023-04-16T16:59:25.359Z,800.70
2023-04-16T17:04:27.670Z,802.47
2023-04-16T17:09:32.401Z,800.10
2023-04-16T17:14:42.925Z,795.58
2023-04-16T17:19:44.790Z,785.13
2023-04-16T17:24:47.182Z,792.58
2023-04-16T17:29:50.419Z,786.85
2023-04-16T17:34:55.651Z,796.00
2023-04-16T17:39:58.045Z,792.87
2023-04-16T17:45:02.924Z,791.35
2023-04-16T17:50:06.448Z,796.00
2023-04-16T17:55:16.232Z,793.73
2023-04-16T18:00:18.782Z,794.17
2023-04-16T18:05:20.841Z,793.45
2023-04-16T18:10:22.828Z,793.83
2023-04-16T18:15:24.941Z,794.55
2023-04-16T18:20:27.152Z,794.58
2023-04-16T18:25:34.311Z,802.70
2023-04-16T18:30:40.241Z,794.75
2023-04-16T18:35:42.625Z,786.78
2023-04-16T18:40:44.539Z,790.13
2023-04-16T18:45:46.564Z,790.47
2023-04-16T18:50:48.481Z,780.50
2023-04-16T18:55:53.974Z,787.95
2023-04-16T19:00:58.644Z,783.67
2023-04-16T19:06:00.588Z,787.05
2023-04-16T19:11:02.458Z,788.30
2023-04-16T19:16:06.199Z,789.22
2023-04-16T19:21:10.029Z,791.63
2023-04-16T19:26:11.965Z,779.80
2023-04-16T19:31:13.915Z,790.83
2023-04-16T19:36:16.245Z,785.38
2023-04-16T19:41:18.090Z,782.42
2023-04-16T19:46:20.105Z,777.50
2023-04-16T19:51:22.061Z,778.40
2023-04-16T19:56:23.993Z,778.50
2023-04-16T20:01:25.940Z,780.40
2023-04-16T20:06:27.863Z,787.85
2023-04-16T20:11:29.805Z,779.72
2023-04-16T20:16:31.818Z,787.63
2023-04-16T20:21:33.637Z,776.75
2023-04-16T20:26:36.497Z,781.15
2023-04-16T20:31:38.505Z,775.03
2023-04-16T20:36:40.543Z,776.38
2023-04-16T20:41:44.356Z,773.95
2023-04-16T20:46:49.599Z,773.95
2023-04-16T20:51:51.924Z,775.40
2023-04-16T20:56:57.233Z,776.05
2023-04-16T21:01:59.251Z,771.08
2023-04-16T21:07:05.231Z,772.67
2023-04-16T21:12:09.747Z,770.67
2023-04-16T21:17:15.121Z,775.58
2023-04-16T21:22:17.470Z,772.58
2023-04-16T21:27:19.350Z,772.10
2023-04-16T21:32:21.267Z,771.30
2023-04-16T21:37:23.167Z,781.35
2023-04-16T21:42:26.097Z,780.50
2023-04-16T21:47:27.938Z,774.92
2023-04-16T21:52:32.909Z,772.13
2023-04-16T21:57:34.889Z,774.10
2023-04-16T22:02:36.925Z,765.83
2023-04-16T22:07:39.008Z,764.45
2023-04-16T22:12:40.892Z,763.65
2023-04-16T22:17:42.812Z,763.65
2023-04-16T22:22:44.742Z,766.85
2023-04-16T22:27:47.528Z,773.88
2023-04-16T22:32:51.536Z,768.72
2023-04-16T22:37:53.369Z,774.40
2023-04-16T22:42:55.437Z,776.85
2023-04-16T22:47:58.213Z,774.60
2023-04-16T22:53:01.686Z,776.67
2023-04-16T22:58:03.568Z,774.88
2023-04-16T23:03:05.578Z,773.00
2023-04-16T23:08:08.107Z,774.45
2023-04-16T23:13:10.030Z,770.28
2023-04-16T23:18:13.493Z,768.25
2023-04-16T23:23:15.676Z,770.53
2023-04-16T23:28:18.932Z,771.35
2023-04-16T23:33:22.761Z,774.15
2023-04-16T23:38:24.593Z,772.60
2023-04-16T23:43:27.448Z,771.08
2023-04-16T23:48:29.246Z,774.22
2023-04-16T23:53:35.093Z,765.17
2023-04-16T23:58:36.914Z,778.47
